Calliham, Texas
Current Conditions -  °F | °C
As of 7:58 AM on Sunday 23 Nov 2014 (Local Time) from KNMT Reporting Station
Clear Clear  
Wind Chill: 51°   Ceiling: Unl
Heat Index: 51°   Visibility: NA
Dew Point: 49°   Wind: 5mph
Humidity: 92%   Direction: NA
Pressure: 29.72"   Gusts: NA
Location:  28.48°N, 98.35°W
Report Text: KNMT 231358Z AUTO VRB04KT CLR 11/09 A2972 RMK AO2 SLP107 T01060094 PNO $
Loading
Personal Weather Stations






























Interactive Weather Map New forecast layout! Learn more

10-Day Weather Forecast

Advertisements
Track Severe Weather on mobile